Time;durP1;ratioP1;P1;durP2;ratioP2;P2;SDS_P1;SDS_P2;PMS_P1;PMS_P2;Temp;Humidity;BMP_temperature;BMP_pressure;BME280_temperature;BME280_humidity;BME280_pressure;Samples;Min_cycle;Max_cycle;Signal;HPM_P1;HPM_P2
2022/06/06 00:00:54;;;;;;;8.07;4.70;;;;;;;12.76;95.30;96272.66;2020716;29;20052;-60
2022/06/06 00:01:57;;;;;;;8.02;5.10;;;;;;;12.74;95.53;96261.47;2031599;29;20095;-60
2022/06/06 00:02:58;;;;;;;8.48;5.55;;;;;;;12.72;95.76;96271.13;2032891;29;20039;-60
2022/06/06 00:04:00;;;;;;;8.48;5.10;;;;;;;12.73;95.33;96260.63;2025069;29;20048;-61
2022/06/06 00:05:02;;;;;;;10.05;5.30;;;;;;;12.72;95.34;96260.69;2025195;29;20047;-59
2022/06/06 00:06:08;;;;;;;7.60;4.88;;;;;;;12.78;95.68;96263.84;2024949;29;20048;-59
2022/06/06 00:07:09;;;;;;;11.15;5.45;;;;;;;12.76;95.54;96262.22;2011591;29;20552;-61
2022/06/06 00:08:12;;;;;;;9.05;4.88;;;;;;;12.79;95.34;96257.69;1995540;29;20049;-59
2022/06/06 00:09:14;;;;;;;7.63;5.00;;;;;;;12.77;95.52;96264.75;2010430;29;20041;-60
2022/06/06 00:10:16;;;;;;;7.85;4.97;;;;;;;12.78;95.58;96256.03;2016540;29;20049;-59
2022/06/06 00:11:17;;;;;;;6.40;4.97;;;;;;;12.74;95.65;96253.66;2010150;29;20059;-60
2022/06/06 00:12:20;;;;;;;10.95;5.55;;;;;;;12.77;95.62;96258.69;2024983;29;20046;-60
2022/06/06 00:13:21;;;;;;;9.20;5.10;;;;;;;12.78;95.47;96256.03;2017441;29;20045;-61
2022/06/06 00:14:23;;;;;;;9.00;5.07;;;;;;;12.76;95.21;96254.41;2002281;29;20042;-59
2022/06/06 00:15:24;;;;;;;8.73;4.88;;;;;;;12.76;95.32;96252.66;2009809;29;20098;-59
2022/06/06 00:16:26;;;;;;;8.20;5.32;;;;;;;12.76;95.17;96249.19;2009444;29;20034;-58
2022/06/06 00:17:27;;;;;;;10.50;5.82;;;;;;;12.76;95.77;96255.25;2002362;29;20041;-60
2022/06/06 00:18:29;;;;;;;10.35;5.20;;;;;;;12.78;95.79;96248.19;2009516;29;20049;-57
2022/06/06 00:19:31;;;;;;;8.50;5.10;;;;;;;12.79;95.38;96246.44;2025240;29;20041;-58
2022/06/06 00:20:32;;;;;;;8.52;5.00;;;;;;;12.81;95.55;96247.19;2017061;29;20044;-60
2022/06/06 00:21:34;;;;;;;9.98;5.03;;;;;;;12.85;95.51;96242.66;2017211;29;20123;-61
2022/06/06 00:22:35;;;;;;;7.80;5.10;;;;;;;12.87;95.40;96238.22;2019451;29;20484;-60
2022/06/06 00:23:37;;;;;;;8.88;5.80;;;;;;;12.86;95.21;96237.38;2017552;29;20052;-59
2022/06/06 00:24:38;;;;;;;9.48;5.60;;;;;;;12.87;95.24;96233.84;1999879;29;20050;-60
2022/06/06 00:25:40;;;;;;;7.63;5.20;;;;;;;12.90;95.65;96232.84;1995345;29;20050;-61
2022/06/06 00:26:42;;;;;;;7.50;5.13;;;;;;;12.94;95.30;96234.38;2009732;29;20108;-60
2022/06/06 00:27:43;;;;;;;7.85;5.78;;;;;;;12.95;95.68;96231.69;2017301;29;20040;-60
2022/06/06 00:28:45;;;;;;;7.70;5.40;;;;;;;13.00;95.31;96237.50;2009377;29;20037;-60
2022/06/06 00:29:47;;;;;;;6.93;5.18;;;;;;;13.06;95.36;96228.50;2009286;29;20076;-59
2022/06/06 00:30:48;;;;;;;9.40;5.55;;;;;;;13.14;95.45;96228.94;2006477;29;20053;-60
2022/06/06 00:35:50;;;;;;;7.32;5.03;;;;;;;13.13;94.89;96229.03;2009444;29;20064;-61
2022/06/06 00:36:52;;;;;;;6.70;4.72;;;;;;;13.09;94.63;96235.31;2009432;29;20038;-60
2022/06/06 00:37:53;;;;;;;6.32;4.75;;;;;;;13.07;94.69;96230.19;2015684;29;20037;-60
2022/06/06 00:38:54;;;;;;;8.48;5.22;;;;;;;13.05;94.93;96228.59;2018135;29;20065;-60
2022/06/06 00:39:56;;;;;;;10.23;5.43;;;;;;;13.05;94.77;96236.41;2010632;29;20037;-58
2022/06/06 00:40:59;;;;;;;7.07;4.70;;;;;;;13.03;94.93;96233.88;2007327;29;20049;-56
2022/06/06 00:42:00;;;;;;;8.82;5.72;;;;;;;13.03;95.15;96228.66;2025969;29;20044;-57
2022/06/06 00:43:03;;;;;;;8.50;4.53;;;;;;;13.03;94.58;96226.06;2018002;29;20048;-56
2022/06/06 00:44:07;;;;;;;10.38;5.30;;;;;;;13.01;94.95;96225.28;2003339;29;20052;-61
2022/06/06 00:45:28;;;;;;;7.60;5.28;;;;;;;12.99;94.80;96221.91;2011169;29;20436;-60
2022/06/06 00:46:30;;;;;;;7.75;4.68;;;;;;;12.98;95.03;96221.06;2012457;29;20040;-57
2022/06/06 00:47:31;;;;;;;6.13;4.68;;;;;;;12.98;94.95;96223.69;2001940;29;20054;-60
2022/06/06 00:48:36;;;;;;;7.68;5.00;;;;;;;12.99;94.96;96207.13;2025236;29;20051;-61
2022/06/06 00:49:41;;;;;;;7.35;5.53;;;;;;;12.97;94.59;96215.97;2024853;29;20036;-59
2022/06/06 00:51:05;;;;;;;8.93;5.72;;;;;;;12.93;94.87;96210.06;2025479;29;20033;-61
2022/06/06 00:52:13;;;;;;;13.55;5.65;;;;;;;12.84;94.53;96202.72;2025557;29;20048;-60
2022/06/06 00:53:18;;;;;;;6.65;4.88;;;;;;;12.81;94.81;96200.28;2010495;29;20044;-59
2022/06/06 00:54:20;;;;;;;8.77;5.32;;;;;;;12.82;95.00;96199.34;2004085;29;20050;-59
2022/06/06 00:55:24;;;;;;;7.57;5.43;;;;;;;12.84;95.20;96204.50;2002120;29;20045;-60
2022/06/06 00:56:43;;;;;;;8.05;5.47;;;;;;;12.82;94.77;96193.31;2009592;29;20050;-60
2022/06/06 00:57:47;;;;;;;9.30;5.22;;;;;;;12.79;94.79;96200.38;2024922;29;20063;-60
2022/06/06 00:58:51;;;;;;;9.38;5.18;;;;;;;12.80;94.79;96196.00;2017078;29;20036;-60
2022/06/06 00:59:53;;;;;;;8.32;5.18;;;;;;;12.86;94.65;96195.69;2017809;29;20536;-59
2022/06/06 01:00:54;;;;;;;6.45;4.70;;;;;;;12.78;94.70;96183.06;2017277;29;20044;-60
2022/06/06 01:01:56;;;;;;;10.60;5.47;;;;;;;12.79;95.30;96195.16;2020213;29;20040;-60
2022/06/06 01:02:57;;;;;;;9.00;5.35;;;;;;;12.76;94.72;96195.31;2017107;29;20037;-61
2022/06/06 01:03:59;;;;;;;9.02;5.10;;;;;;;12.79;95.19;96197.75;2023932;29;20048;-59
2022/06/06 01:05:02;;;;;;;7.35;5.05;;;;;;;12.82;94.95;96201.97;2009392;29;20053;-58
2022/06/06 01:06:04;;;;;;;11.13;4.90;;;;;;;12.80;94.97;96193.38;2009947;29;20501;-60
2022/06/06 01:07:06;;;;;;;8.02;5.00;;;;;;;12.80;94.94;96202.06;2009466;29;20045;-61
2022/06/06 01:08:08;;;;;;;6.38;4.65;;;;;;;12.76;95.27;96202.31;2002296;29;20050;-61
2022/06/06 01:09:10;;;;;;;9.30;5.55;;;;;;;12.77;95.26;96211.78;2009615;29;20037;-57
2022/06/06 01:10:15;;;;;;;16.02;5.60;;;;;;;12.74;94.67;96209.34;2001821;29;20041;-59
2022/06/06 01:11:16;;;;;;;11.10;5.40;;;;;;;12.76;95.29;96203.13;2003468;29;20057;-60
2022/06/06 01:12:19;;;;;;;8.60;5.18;;;;;;;12.78;95.37;96205.69;2009039;29;20049;-61
2022/06/06 01:13:22;;;;;;;8.70;5.25;;;;;;;12.75;94.96;96209.28;2009466;29;20053;-61
2022/06/06 01:14:24;;;;;;;9.52;5.10;;;;;;;12.71;95.23;96201.69;2009988;29;20747;-61
2022/06/06 01:15:28;;;;;;;10.38;5.32;;;;;;;12.71;95.14;96212.13;2016592;29;20029;-61
2022/06/06 01:16:40;;;;;;;7.45;4.75;;;;;;;12.71;95.11;96212.13;2015368;29;20394;-56
2022/06/06 01:17:57;;;;;;;7.50;4.93;;;;;;;12.67;94.94;96208.84;2003266;29;20049;-59
2022/06/06 01:19:22;;;;;;;8.82;5.18;;;;;;;12.65;95.06;96213.28;1990815;29;20047;-61
2022/06/06 01:20:58;;;;;;;10.43;5.63;;;;;;;12.69;95.38;96213.97;2002196;29;20037;-60
2022/06/06 01:22:22;;;;;;;7.57;5.25;;;;;;;12.63;95.14;96209.91;2013846;29;20040;-60
2022/06/06 01:23:40;;;;;;;7.65;5.35;;;;;;;12.60;95.22;96211.84;2004655;29;20042;-60
2022/06/06 01:25:14;;;;;;;7.68;5.47;;;;;;;12.59;95.29;96211.00;2004193;29;20111;-60
2022/06/06 01:26:42;;;;;;;8.63;5.50;;;;;;;12.60;95.10;96209.22;2027429;29;20055;-59
2022/06/06 01:28:04;;;;;;;8.13;5.07;;;;;;;12.58;95.30;96206.69;2009335;29;20413;-60
2022/06/06 01:29:34;;;;;;;9.13;5.55;;;;;;;12.55;95.15;96205.09;2014898;29;20060;-60
2022/06/06 01:30:39;;;;;;;8.90;5.85;;;;;;;12.50;95.12;96207.09;2013904;29;20068;-59
2022/06/06 01:31:45;;;;;;;10.40;5.88;;;;;;;12.46;95.53;96204.75;2009832;29;20041;-61
2022/06/06 01:32:52;;;;;;;7.65;5.82;;;;;;;12.51;95.14;96205.31;2017297;29;20044;-59
2022/06/06 01:33:55;;;;;;;12.25;6.40;;;;;;;12.51;95.46;96207.94;2009701;29;20046;-60
2022/06/06 01:34:57;;;;;;;6.88;5.15;;;;;;;12.45;95.54;96206.47;2009964;29;20046;-61
2022/06/06 01:36:00;;;;;;;7.70;6.07;;;;;;;12.41;95.58;96211.94;2001742;29;20038;-60
2022/06/06 01:37:02;;;;;;;9.18;5.28;;;;;;;12.35;95.30;96207.91;2016676;29;20045;-59
2022/06/06 01:38:04;;;;;;;10.23;5.88;;;;;;;12.33;95.59;96209.72;2009068;29;20056;-59
2022/06/06 01:39:07;;;;;;;9.70;5.63;;;;;;;12.29;95.47;96209.03;2016906;29;20049;-62
2022/06/06 01:40:12;;;;;;;8.73;5.45;;;;;;;12.26;95.55;96211.78;2024537;29;20045;-60
2022/06/06 01:41:15;;;;;;;7.85;5.82;;;;;;;12.29;95.58;96214.22;2009158;29;20037;-61
2022/06/06 01:42:19;;;;;;;8.68;6.00;;;;;;;12.27;95.26;96220.44;2017549;29;20056;-60
2022/06/06 01:43:25;;;;;;;10.10;6.10;;;;;;;12.26;95.28;96218.75;2032420;29;20047;-61
2022/06/06 01:44:48;;;;;;;8.80;5.50;;;;;;;12.26;95.31;96219.59;2009376;29;20532;-57
2022/06/06 01:45:54;;;;;;;10.05;5.50;;;;;;;12.28;95.35;96219.53;2010397;29;20419;-59
2022/06/06 01:46:56;;;;;;;8.90;5.85;;;;;;;12.27;95.84;96220.44;2017068;29;20045;-60
2022/06/06 01:48:10;;;;;;;11.90;6.05;;;;;;;12.20;95.31;96226.88;2015877;29;20033;-60
2022/06/06 01:49:11;;;;;;;9.55;6.13;;;;;;;12.17;95.72;96232.25;2015839;29;20130;-59
2022/06/06 01:50:13;;;;;;;9.07;6.50;;;;;;;12.20;95.91;96224.28;2001555;29;20057;-60
2022/06/06 01:51:18;;;;;;;9.32;6.00;;;;;;;12.16;95.28;96236.59;2001280;29;20034;-64
2022/06/06 01:52:19;;;;;;;8.23;6.38;;;;;;;12.16;95.92;96228.78;2016184;29;20527;-60
2022/06/06 01:53:23;;;;;;;11.98;6.30;;;;;;;12.18;95.53;96226.09;2002021;29;20041;-59
2022/06/06 01:54:24;;;;;;;7.88;5.80;;;;;;;12.13;95.42;96232.41;2009569;29;20038;-60
2022/06/06 01:55:26;;;;;;;9.27;6.45;;;;;;;12.10;95.93;96232.53;1994433;29;20031;-59
2022/06/06 01:56:32;;;;;;;9.98;6.50;;;;;;;12.10;95.44;96227.31;2009505;29;20049;-56
2022/06/06 01:57:33;;;;;;;10.70;6.68;;;;;;;12.07;96.00;96230.09;2023773;29;20408;-59
2022/06/06 01:58:35;;;;;;;11.57;7.20;;;;;;;12.05;95.85;96228.47;2017394;29;20068;-59
2022/06/06 01:59:37;;;;;;;10.50;7.05;;;;;;;12.05;96.05;96225.88;1994417;29;20053;-58
2022/06/06 02:00:39;;;;;;;11.02;7.57;;;;;;;12.03;96.07;96232.91;2006598;29;20045;-60
2022/06/06 02:01:41;;;;;;;12.27;7.28;;;;;;;12.01;95.86;96226.97;2021364;29;20052;-60
2022/06/06 02:02:43;;;;;;;11.27;7.25;;;;;;;11.95;95.92;96225.50;2008941;29;20049;-61
2022/06/06 02:03:44;;;;;;;13.10;6.63;;;;;;;11.95;95.58;96225.50;2016934;29;20053;-61
2022/06/06 02:04:46;;;;;;;13.07;6.68;;;;;;;11.94;95.83;96222.97;2027763;29;20536;-61
2022/06/06 02:05:47;;;;;;;10.52;6.38;;;;;;;11.94;95.71;96230.78;2018516;29;20048;-60
2022/06/06 02:06:49;;;;;;;10.88;6.63;;;;;;;11.92;95.75;96228.22;2015804;24;20109;-62
2022/06/06 02:07:51;;;;;;;12.98;6.70;;;;;;;11.88;96.24;96232.75;1994726;29;20046;-61
2022/06/06 02:08:53;;;;;;;8.20;5.60;;;;;;;11.90;95.64;96230.09;1985184;29;20043;-61
2022/06/06 02:09:54;;;;;;;13.63;7.07;;;;;;;11.92;95.57;96238.63;1988247;29;20047;-61
2022/06/06 02:10:55;;;;;;;8.45;6.35;;;;;;;11.85;95.61;96225.06;2010558;29;20432;-60
2022/06/06 02:11:59;;;;;;;11.07;7.80;;;;;;;11.88;95.65;96231.91;1995440;29;20387;-61
2022/06/06 02:13:00;;;;;;;10.10;6.82;;;;;;;11.86;96.12;96233.75;1995636;29;20164;-62
2022/06/06 02:14:02;;;;;;;7.65;6.00;;;;;;;11.90;96.06;96236.13;1995297;29;20045;-62
2022/06/06 02:15:04;;;;;;;12.55;6.97;;;;;;;11.85;96.09;96234.63;1988039;29;20049;-61
2022/06/06 02:16:06;;;;;;;11.93;6.40;;;;;;;11.87;95.79;96238.03;2003279;29;20042;-63
2022/06/06 02:17:07;;;;;;;9.00;6.10;;;;;;;11.85;95.98;96237.25;1994108;29;20050;-62
2022/06/06 02:18:09;;;;;;;11.18;7.03;;;;;;;11.83;95.88;96233.84;1995776;29;20045;-62
2022/06/06 02:19:11;;;;;;;16.92;6.82;;;;;;;11.86;95.87;96231.97;1987781;29;20054;-61
2022/06/06 02:20:14;;;;;;;6.97;5.70;;;;;;;11.87;96.19;96231.06;1988417;29;20055;-62
2022/06/06 02:21:16;;;;;;;9.45;6.18;;;;;;;11.88;96.19;96234.50;1995633;29;20061;-62
2022/06/06 02:22:17;;;;;;;10.45;6.72;;;;;;;11.95;95.62;96241.13;2010472;29;20049;-63
2022/06/06 02:23:19;;;;;;;10.10;6.30;;;;;;;11.99;96.02;96234.00;1986525;29;20041;-62
2022/06/06 02:24:20;;;;;;;11.38;6.72;;;;;;;11.97;96.04;96241.84;1987049;29;20042;-62
2022/06/06 02:25:22;;;;;;;9.57;6.75;;;;;;;11.96;95.89;96236.75;1987718;29;20035;-62
2022/06/06 02:26:24;;;;;;;7.45;5.93;;;;;;;11.96;96.27;96240.19;1995432;29;20069;-60
2022/06/06 02:27:25;;;;;;;9.68;5.95;;;;;;;11.95;96.02;96235.91;1991537;29;20047;-63
2022/06/06 02:28:27;;;;;;;9.13;6.07;;;;;;;11.96;96.27;96237.59;1995087;29;20497;-61
2022/06/06 02:29:28;;;;;;;9.13;6.80;;;;;;;11.93;95.89;96239.50;1994620;29;20507;-61
2022/06/06 02:30:32;;;;;;;12.60;6.28;;;;;;;11.93;95.60;96242.09;1988457;29;20047;-60
2022/06/06 02:31:37;;;;;;;8.85;6.88;;;;;;;11.97;95.91;96236.66;1995228;29;20050;-62
2022/06/06 02:32:39;;;;;;;7.38;6.13;;;;;;;11.91;96.29;96232.59;1988725;29;20054;-61
2022/06/06 02:33:41;;;;;;;10.15;6.03;;;;;;;11.90;96.23;96232.69;1988349;29;20058;-62
2022/06/06 02:34:43;;;;;;;11.48;6.28;;;;;;;11.94;95.89;96236.81;1995538;29;20106;-62
2022/06/06 02:35:44;;;;;;;8.73;5.63;;;;;;;11.94;96.62;96236.81;2002822;29;20045;-62
2022/06/06 02:36:46;;;;;;;9.70;5.82;;;;;;;11.93;96.15;96237.75;2002859;29;20049;-63
2022/06/06 02:37:47;;;;;;;8.98;6.60;;;;;;;11.94;96.08;96235.97;2002480;29;20061;-61
2022/06/06 02:38:49;;;;;;;8.23;5.60;;;;;;;11.95;95.69;96228.09;1995125;29;20038;-61
2022/06/06 02:39:50;;;;;;;12.15;6.00;;;;;;;11.97;96.35;96236.66;1994825;29;20057;-62
2022/06/06 02:40:51;;;;;;;8.45;6.47;;;;;;;11.91;95.74;96234.34;1985209;29;20043;-61
2022/06/06 02:41:53;;;;;;;11.10;6.75;;;;;;;11.95;96.03;96238.50;1982609;29;20044;-60
2022/06/06 02:42:55;;;;;;;12.45;6.55;;;;;;;11.89;95.82;96233.59;2002783;29;20038;-62
2022/06/06 02:43:56;;;;;;;10.43;6.78;;;;;;;11.90;96.06;96240.50;1995102;29;20045;-62
2022/06/06 02:44:58;;;;;;;10.27;7.38;;;;;;;11.86;96.08;96233.75;2002932;29;20042;-62
2022/06/06 02:46:01;;;;;;;8.07;6.45;;;;;;;11.78;96.44;96230.63;1996157;29;20074;-62
2022/06/06 02:47:04;;;;;;;10.20;6.70;;;;;;;11.76;96.24;96235.06;2003127;29;20402;-61
2022/06/06 02:48:07;;;;;;;12.13;7.72;;;;;;;11.77;95.76;96223.75;2009842;29;20061;-59
2022/06/06 02:49:09;;;;;;;8.88;6.35;;;;;;;11.73;95.82;96228.25;2004760;29;20049;-62
2022/06/06 02:50:10;;;;;;;10.38;7.30;;;;;;;11.73;96.19;96232.59;2002623;29;20046;-62
2022/06/06 02:51:12;;;;;;;11.40;7.53;;;;;;;11.74;96.48;96226.50;2003246;29;20042;-61
2022/06/06 02:52:13;;;;;;;10.10;6.50;;;;;;;11.66;95.95;96227.72;2009909;29;20041;-61
2022/06/06 02:53:15;;;;;;;14.48;7.75;;;;;;;11.68;95.88;96225.88;1995043;29;20527;-61
2022/06/06 02:54:16;;;;;;;12.38;7.97;;;;;;;11.65;96.02;96227.78;1995168;29;20055;-61
2022/06/06 02:55:18;;;;;;;12.30;8.63;;;;;;;11.68;96.24;96228.50;1987773;29;20042;-61
2022/06/06 02:56:19;;;;;;;14.30;9.52;;;;;;;11.64;95.77;96228.69;1987638;29;20413;-62
2022/06/06 02:57:21;;;;;;;10.63;7.18;;;;;;;11.62;96.64;96231.34;1994220;29;20049;-60
2022/06/06 02:58:23;;;;;;;12.18;8.35;;;;;;;11.64;96.07;96226.09;1981822;29;20051;-61
2022/06/06 02:59:25;;;;;;;12.65;8.82;;;;;;;11.61;96.02;96224.47;1980279;29;20512;-61
2022/06/06 03:00:29;;;;;;;12.88;9.48;;;;;;;11.56;95.79;96228.22;1995394;29;20046;-61
2022/06/06 03:01:31;;;;;;;13.95;8.55;;;;;;;11.56;96.27;96229.06;1988677;29;20043;-61
2022/06/06 03:02:33;;;;;;;18.15;9.73;;;;;;;11.57;96.31;96228.13;1995233;29;20039;-61
2022/06/06 03:03:35;;;;;;;13.38;8.18;;;;;;;11.52;96.34;96230.13;1991609;29;20491;-62
2022/06/06 03:04:38;;;;;;;11.80;7.97;;;;;;;11.47;96.00;96227.75;1995484;29;20046;-64
2022/06/06 03:06:08;;;;;;;15.40;9.45;;;;;;;11.41;95.98;96230.63;1995000;29;20056;-61
2022/06/06 03:07:19;;;;;;;12.32;7.75;;;;;;;11.41;96.46;96232.38;1990756;29;20065;-60
2022/06/06 03:08:47;;;;;;;14.48;8.85;;;;;;;11.46;96.15;96230.41;1982301;29;20043;-62
2022/06/06 03:10:21;;;;;;;16.05;9.77;;;;;;;11.41;96.07;96232.38;1995294;29;20057;-61
2022/06/06 03:11:46;;;;;;;19.63;9.43;;;;;;;11.33;96.74;96240.53;1999296;29;20065;-61
2022/06/06 03:13:15;;;;;;;17.55;10.18;;;;;;;11.29;96.54;96240.75;1990689;29;20503;-61
2022/06/06 03:14:44;;;;;;;12.20;8.07;;;;;;;11.23;96.45;96240.13;1986466;29;20050;-61
2022/06/06 03:20:54;;;;;;;17.67;10.25;;;;;;;11.22;96.24;96248.81;1995144;29;20042;-61
2022/06/06 03:22:02;;;;;;;;;;;;;;;11.20;96.76;96250.66;1999376;29;20065;-61
2022/06/06 03:23:28;;;;;;;13.52;8.98;;;;;;;11.24;96.95;96247.00;1996105;29;19917;-62
2022/06/06 03:24:43;;;;;;;14.68;9.00;;;;;;;11.26;96.61;96257.34;2006233;29;20053;-60
2022/06/06 03:25:49;;;;;;;13.65;8.88;;;;;;;11.22;96.92;96251.41;2009798;29;20060;-62
2022/06/06 03:26:50;;;;;;;11.27;8.82;;;;;;;11.26;96.54;96254.75;1995011;29;20454;-60
2022/06/06 03:28:08;;;;;;;21.42;9.55;;;;;;;11.26;96.89;96258.19;1999799;29;20050;-62
2022/06/06 03:29:21;;;;;;;12.20;8.05;;;;;;;11.22;97.04;96264.41;1994839;29;20494;-61
2022/06/06 03:30:35;;;;;;;14.07;8.32;;;;;;;11.20;96.34;96261.06;1990235;29;20058;-61
2022/06/06 03:31:46;;;;;;;11.32;8.27;;;;;;;11.24;96.64;96264.34;1996518;29;20038;-63
2022/06/06 03:33:07;;;;;;;11.35;8.25;;;;;;;11.29;96.60;96265.00;2003840;29;20042;-61
2022/06/06 03:34:21;;;;;;;17.27;9.50;;;;;;;11.34;96.73;96263.03;2009775;29;20045;-61
2022/06/06 03:35:39;;;;;;;15.20;8.82;;;;;;;11.27;96.91;96259.84;2000568;29;20053;-61
2022/06/06 03:36:46;;;;;;;14.68;9.50;;;;;;;11.23;96.90;96271.31;1996813;29;20525;-62
2022/06/06 03:38:11;;;;;;;13.48;9.55;;;;;;;11.25;97.14;96274.69;2002539;29;20046;-61
2022/06/06 03:39:16;;;;;;;16.02;8.65;;;;;;;11.24;97.12;96273.00;2007554;29;20044;-61
2022/06/06 03:40:40;;;;;;;11.00;7.95;;;;;;;11.20;96.45;96271.47;2009615;29;20041;-60
2022/06/06 03:41:49;;;;;;;15.55;9.32;;;;;;;11.22;96.44;96272.22;1995043;29;20437;-62
2022/06/06 03:43:00;;;;;;;18.15;10.27;;;;;;;11.26;96.90;96280.72;1987313;29;20054;-62
2022/06/06 03:44:07;;;;;;;16.70;9.57;;;;;;;11.23;96.90;96273.91;1992898;29;20034;-62
2022/06/06 03:45:12;;;;;;;13.88;9.40;;;;;;;11.24;97.40;96272.16;1995431;29;20046;-62
2022/06/06 03:46:40;;;;;;;13.25;8.30;;;;;;;11.24;96.74;96277.34;2002422;29;20533;-62
2022/06/06 03:47:47;;;;;;;9.70;7.75;;;;;;;11.24;96.51;96278.19;2010913;29;20040;-58
2022/06/06 03:49:22;;;;;;;15.20;9.63;;;;;;;11.26;96.33;96278.97;2006349;29;20057;-62
2022/06/06 03:50:40;;;;;;;13.55;8.82;;;;;;;11.30;96.95;96282.28;2004775;29;20456;-62
2022/06/06 03:51:41;;;;;;;16.95;9.93;;;;;;;11.31;96.64;96283.13;2009953;29;20052;-60
2022/06/06 03:52:47;;;;;;;14.35;9.50;;;;;;;11.31;96.49;96285.75;2002458;29;20041;-59
2022/06/06 03:54:01;;;;;;;13.95;8.45;;;;;;;11.33;96.92;96276.09;1994915;29;20053;-62
2022/06/06 03:55:27;;;;;;;14.07;8.68;;;;;;;11.32;96.62;96284.81;1996387;29;20049;-61
2022/06/06 03:56:32;;;;;;;12.77;8.80;;;;;;;11.32;96.98;96290.00;1997777;29;20042;-59
2022/06/06 03:57:34;;;;;;;17.85;10.18;;;;;;;11.37;96.32;96285.44;2001754;29;20049;-62
2022/06/06 03:58:36;;;;;;;15.48;9.70;;;;;;;11.38;96.90;96284.53;1996878;29;20042;-61
2022/06/06 03:59:38;;;;;;;14.45;8.90;;;;;;;11.41;96.99;96281.78;2002083;29;20099;-61
2022/06/06 04:00:39;;;;;;;14.93;8.93;;;;;;;11.44;96.77;96282.50;2002422;29;20052;-61
2022/06/06 04:01:41;;;;;;;14.35;9.60;;;;;;;11.48;96.72;96272.78;1988354;29;20039;-61
2022/06/06 04:02:44;;;;;;;14.45;9.45;;;;;;;11.53;97.17;96281.22;1994962;29;20050;-61
2022/06/06 04:03:46;;;;;;;13.88;9.15;;;;;;;11.56;97.22;96282.84;1991953;29;20093;-61
2022/06/06 04:04:48;;;;;;;12.38;8.73;;;;;;;11.57;96.92;96274.94;1995052;29;20054;-60
2022/06/06 04:05:49;;;;;;;14.07;9.73;;;;;;;11.59;96.81;96277.50;1994862;29;20050;-59
2022/06/06 04:06:51;;;;;;;15.07;9.77;;;;;;;11.60;97.17;96267.03;1994349;29;20082;-59
2022/06/06 04:07:53;;;;;;;14.52;10.13;;;;;;;11.65;96.50;96279.78;1994263;29;20422;-59
2022/06/06 04:08:54;;;;;;;14.23;8.50;;;;;;;11.65;97.29;96272.88;2000981;29;20048;-61
2022/06/06 04:09:56;;;;;;;20.67;11.45;;;;;;;11.69;96.71;96279.59;1996583;29;20045;-62
2022/06/06 04:11:25;;;;;;;13.60;9.43;;;;;;;11.74;96.87;96283.75;1994918;29;20058;-59
2022/06/06 04:12:26;;;;;;;12.73;8.95;;;;;;;11.78;97.17;96272.25;1994719;29;20041;-62
2022/06/06 04:13:50;;;;;;;13.13;8.63;;;;;;;11.85;97.03;96279.72;1994514;29;20038;-62
2022/06/06 04:15:01;;;;;;;12.88;8.88;;;;;;;11.89;97.17;96280.44;2000652;29;20056;-61
2022/06/06 04:16:26;;;;;;;8.85;7.65;;;;;;;11.90;96.68;96282.13;1993291;29;20043;-62
2022/06/06 04:17:42;;;;;;;10.02;8.20;;;;;;;11.89;96.97;96288.22;1985993;29;20556;-62
2022/06/06 04:18:52;;;;;;;12.00;7.45;;;;;;;11.94;97.08;96294.06;2003275;29;20043;-60
2022/06/06 04:20:17;;;;;;;12.98;7.40;;;;;;;11.98;96.89;96289.56;2001882;29;20046;-61
2022/06/06 04:21:27;;;;;;;11.40;7.80;;;;;;;12.00;96.73;96283.38;1982664;29;20214;-62
2022/06/06 04:22:50;;;;;;;12.45;7.50;;;;;;;12.05;96.72;96283.97;1989760;29;20050;-60
2022/06/06 04:24:20;;;;;;;9.55;6.68;;;;;;;12.09;97.15;96282.09;1994503;29;20057;-62
2022/06/06 04:25:33;;;;;;;9.93;6.90;;;;;;;12.16;96.50;96286.06;1994785;29;20050;-60
2022/06/06 04:26:55;;;;;;;9.65;7.25;;;;;;;12.20;96.95;96282.41;1995079;29;20517;-62
2022/06/06 04:28:14;;;;;;;10.50;7.50;;;;;;;12.24;96.48;96288.28;1986952;29;20058;-62
2022/06/06 04:29:38;;;;;;;11.43;7.00;;;;;;;12.27;96.85;96291.59;1993631;29;20047;-61
2022/06/06 04:31:09;;;;;;;9.18;6.22;;;;;;;12.28;96.32;96290.66;2001921;29;20058;-62
2022/06/06 04:32:41;;;;;;;9.35;5.97;;;;;;;12.34;96.57;96284.31;2005904;29;20076;-62
2022/06/06 04:33:56;;;;;;;11.48;7.20;;;;;;;12.36;96.62;96291.13;2009644;29;20054;-62
2022/06/06 04:35:06;;;;;;;9.60;7.22;;;;;;;12.38;96.20;96292.84;2007613;29;20053;-61
2022/06/06 04:36:16;;;;;;;11.43;6.72;;;;;;;12.37;96.08;96294.56;2002182;29;20053;-59
2022/06/06 04:37:37;;;;;;;11.70;6.80;;;;;;;12.34;96.17;96294.72;2000851;29;20045;-62
2022/06/06 04:38:42;;;;;;;11.02;6.95;;;;;;;12.30;96.40;96291.44;2000092;29;20069;-60
2022/06/06 04:39:59;;;;;;;10.23;7.07;;;;;;;12.26;96.56;96292.50;2001858;29;20049;-63
2022/06/06 04:41:23;;;;;;;12.05;8.00;;;;;;;12.20;96.24;96292.81;1996497;29;20534;-62
2022/06/06 04:42:36;;;;;;;7.50;6.10;;;;;;;12.18;96.18;96289.44;1997350;29;20057;-62
2022/06/06 04:44:03;;;;;;;9.75;6.60;;;;;;;12.25;95.97;96288.22;2001896;29;20414;-60
2022/06/06 04:45:32;;;;;;;9.27;6.25;;;;;;;12.30;95.83;96296.66;1982553;29;20055;-60
2022/06/06 04:46:42;;;;;;;9.32;6.20;;;;;;;12.35;95.96;96296.44;1997436;29;20049;-62
2022/06/06 04:47:44;;;;;;;9.43;5.72;;;;;;;12.38;95.65;96296.28;2006975;29;20037;-62
2022/06/06 04:48:45;;;;;;;11.52;5.78;;;;;;;12.44;95.66;96292.53;1999079;29;20045;-61
2022/06/06 04:49:47;;;;;;;8.50;5.60;;;;;;;12.50;95.86;96294.81;2001661;29;20502;-61
2022/06/06 04:50:48;;;;;;;9.18;5.93;;;;;;;12.55;95.56;96293.66;2001735;29;20050;-62
2022/06/06 04:51:50;;;;;;;7.95;5.38;;;;;;;12.53;95.21;96292.06;1994195;29;20050;-62
2022/06/06 04:52:55;;;;;;;9.93;5.53;;;;;;;12.58;95.58;96290.91;1987117;29;20063;-62
2022/06/06 04:53:57;;;;;;;10.50;5.72;;;;;;;12.64;94.90;96297.56;1995295;29;20042;-60
2022/06/06 04:54:58;;;;;;;9.98;5.95;;;;;;;12.66;94.96;96297.50;2001451;29;20042;-62
2022/06/06 04:56:00;;;;;;;8.40;5.32;;;;;;;12.67;94.62;96292.22;2001786;29;20042;-62
2022/06/06 04:57:01;;;;;;;6.65;5.32;;;;;;;12.71;95.18;96288.53;2002245;29;20050;-62
2022/06/06 04:58:03;;;;;;;8.00;5.40;;;;;;;12.74;94.64;96290.97;2001654;29;20045;-63
2022/06/06 04:59:05;;;;;;;7.90;4.40;;;;;;;12.83;94.71;96289.69;2009199;29;20045;-61
2022/06/06 05:00:07;;;;;;;9.30;5.32;;;;;;;12.89;94.68;96298.94;2001697;29;20056;-62
2022/06/06 05:01:10;;;;;;;11.02;5.30;;;;;;;12.90;94.49;96296.22;1994995;29;20054;-62
2022/06/06 05:02:12;;;;;;;7.47;5.70;;;;;;;12.92;94.41;96291.78;2001999;29;20058;-62
2022/06/06 05:03:13;;;;;;;10.40;4.65;;;;;;;13.01;94.76;96295.69;1994324;29;20613;-63
2022/06/06 05:04:15;;;;;;;7.38;4.75;;;;;;;13.00;94.31;96297.44;1994394;29;20049;-62
2022/06/06 05:05:16;;;;;;;8.48;4.97;;;;;;;13.05;94.28;96302.44;2009369;29;20093;-62
2022/06/06 05:06:37;;;;;;;6.57;4.32;;;;;;;13.06;94.25;96303.28;2001721;29;20049;-61
2022/06/06 05:07:48;;;;;;;8.50;4.78;;;;;;;13.11;93.74;96301.25;2001765;29;20514;-61
2022/06/06 05:09:19;;;;;;;8.52;5.03;;;;;;;13.18;94.36;96311.28;1987857;29;20043;-62
2022/06/06 05:10:45;;;;;;;7.45;4.97;;;;;;;13.22;93.86;96307.59;1982767;29;20042;-62
2022/06/06 05:12:25;;;;;;;8.88;4.68;;;;;;;13.25;93.43;96314.41;1997444;29;20053;-62
2022/06/06 05:13:29;;;;;;;6.00;4.35;;;;;;;13.18;93.13;96307.84;1999431;29;20049;-62
2022/06/06 05:15:11;;;;;;;8.23;4.70;;;;;;;13.19;92.54;96307.75;1994499;29;20039;-62
2022/06/06 05:16:20;;;;;;;6.57;4.18;;;;;;;13.27;92.73;96315.22;2006609;29;20152;-62
2022/06/06 05:17:21;;;;;;;;;;;;;;;13.28;92.15;96303.00;2001318;29;20454;-62
2022/06/06 05:18:32;;;;;;;6.75;4.45;;;;;;;13.29;91.81;96310.75;1993978;29;20412;-63
2022/06/06 05:19:45;;;;;;;4.80;4.03;;;;;;;13.34;91.96;96305.28;2001933;29;20572;-60
2022/06/06 05:21:06;;;;;;;6.90;4.20;;;;;;;13.38;91.60;96312.03;1994056;29;20050;-62
2022/06/06 05:22:30;;;;;;;7.55;4.47;;;;;;;13.39;91.48;96313.69;2004274;29;20052;-63
2022/06/06 05:24:00;;;;;;;8.50;4.72;;;;;;;13.46;91.46;96315.06;2001935;29;20070;-63
2022/06/06 05:25:02;;;;;;;8.82;4.40;;;;;;;13.52;91.06;96313.91;1986519;29;20058;-62
2022/06/06 05:26:30;;;;;;;8.52;4.13;;;;;;;13.58;91.44;96318.78;1987999;29;20458;-62